Time;durP1;ratioP1;P1;durP2;ratioP2;P2;SDS_P1;SDS_P2;PMS_P1;PMS_P2;Temp;Humidity;BMP_temperature;BMP_pressure;BME280_temperature;BME280_humidity;BME280_pressure;Samples;Min_cycle;Max_cycle;Signal;HPM_P1;HPM_P2
2023/03/20 00:01:29;;;;;;;3.25;1.52;;;23.30;50.90;;;;;;4981103;28;20045;-62
2023/03/20 00:03:56;;;;;;;3.15;1.50;;;23.20;50.90;;;;;;4984172;28;20466;-62
2023/03/20 00:06:24;;;;;;;2.53;1.30;;;23.30;50.90;;;;;;4982076;28;20026;-62
2023/03/20 00:08:52;;;;;;;2.75;1.30;;;23.30;50.90;;;;;;4981498;28;20081;-62
2023/03/20 00:11:29;;;;;;;3.08;1.40;;;23.20;50.90;;;;;;4980460;28;20031;-62
2023/03/20 00:14:12;;;;;;;2.45;1.23;;;23.20;50.90;;;;;;4985241;28;20038;-62
2023/03/20 00:16:47;;;;;;;2.45;1.35;;;23.20;50.90;;;;;;4981220;28;20110;-62
2023/03/20 00:19:22;;;;;;;2.05;1.10;;;23.20;50.90;;;;;;4982344;28;20097;-62
2023/03/20 00:21:48;;;;;;;3.13;1.30;;;23.20;50.90;;;;;;4981509;28;20057;-62
2023/03/20 00:24:15;;;;;;;2.92;1.40;;;23.20;50.90;;;;;;4983234;28;20104;-63
2023/03/20 00:26:42;;;;;;;2.30;1.23;;;23.20;50.90;;;;;;4978699;28;20034;-62
2023/03/20 00:29:19;;;;;;;2.67;1.30;;;23.20;50.90;;;;;;4982701;28;20603;-62
2023/03/20 00:31:45;;;;;;;2.95;1.20;;;23.20;51.00;;;;;;4979147;28;20022;-62
2023/03/20 00:34:16;;;;;;;2.80;1.20;;;23.20;50.90;;;;;;4979370;28;20023;-62
2023/03/20 00:36:42;;;;;;;2.58;1.15;;;23.20;50.90;;;;;;4984238;28;20023;-62
2023/03/20 00:39:08;;;;;;;1.90;1.20;;;23.10;50.90;;;;;;4981237;28;20031;-62
2023/03/20 00:41:41;;;;;;;2.38;1.23;;;23.10;51.40;;;;;;4979252;28;20054;-62
2023/03/20 00:44:24;;;;;;;2.10;1.10;;;23.10;50.90;;;;;;4982836;28;20034;-62
2023/03/20 00:46:54;;;;;;;2.55;1.45;;;23.10;51.00;;;;;;4982884;28;20483;-62
2023/03/20 00:49:32;;;;;;;2.55;1.20;;;23.10;50.90;;;;;;4982406;28;20024;-62
2023/03/20 00:52:00;;;;;;;2.03;1.17;;;23.10;50.90;;;;;;4982556;28;20038;-61
2023/03/20 00:54:26;;;;;;;2.33;1.20;;;23.10;50.90;;;;;;4983943;28;20470;-62
2023/03/20 00:57:16;;;;;;;2.88;1.10;;;23.10;50.90;;;;;;4981033;28;20527;-62
2023/03/20 00:59:53;;;;;;;1.75;1.10;;;23.10;51.00;;;;;;4980369;28;20343;-62
2023/03/20 01:02:22;;;;;;;1.92;1.20;;;23.10;51.00;;;;;;4982669;28;20030;-62
2023/03/20 01:04:48;;;;;;;1.90;1.20;;;23.00;50.90;;;;;;4980940;28;20122;-62
2023/03/20 01:07:15;;;;;;;2.38;1.30;;;23.00;50.90;;;;;;4981948;28;20121;-62
2023/03/20 01:09:41;;;;;;;2.53;1.38;;;23.00;50.90;;;;;;4982188;28;20022;-62
2023/03/20 01:12:09;;;;;;;2.17;1.17;;;23.00;50.90;;;;;;4979437;28;20117;-62
2023/03/20 01:14:34;;;;;;;2.03;1.10;;;23.00;51.00;;;;;;4982196;28;20497;-62
2023/03/20 01:17:00;;;;;;;1.67;1.10;;;23.00;51.00;;;;;;4980253;28;20023;-62
2023/03/20 01:19:26;;;;;;;2.22;1.10;;;23.00;51.00;;;;;;4983233;28;20069;-62
2023/03/20 01:21:52;;;;;;;2.20;1.10;;;23.00;51.00;;;;;;4982302;28;20042;-62
2023/03/20 01:24:17;;;;;;;2.78;1.13;;;23.00;51.00;;;;;;4985896;28;20494;-62
2023/03/20 01:26:44;;;;;;;1.98;1.00;;;23.00;51.00;;;;;;4986297;28;20035;-61
2023/03/20 01:29:24;;;;;;;2.17;1.20;;;23.00;51.00;;;;;;4987833;28;20445;-62
2023/03/20 01:31:51;;;;;;;2.42;1.10;;;23.00;51.00;;;;;;4984342;28;20027;-61
2023/03/20 01:34:17;;;;;;;2.08;1.10;;;23.00;51.00;;;;;;4986387;28;20034;-62
2023/03/20 01:36:53;;;;;;;2.22;1.17;;;22.90;51.00;;;;;;4985714;28;20038;-62
2023/03/20 01:39:26;;;;;;;1.85;1.02;;;22.90;51.00;;;;;;4986275;28;20030;-62
2023/03/20 01:41:53;;;;;;;1.70;1.13;;;23.00;51.10;;;;;;4985119;28;20034;-62
2023/03/20 01:44:21;;;;;;;1.98;1.10;;;22.90;51.00;;;;;;4982886;28;20022;-62
2023/03/20 01:46:48;;;;;;;1.92;1.00;;;22.90;51.00;;;;;;4984374;28;20152;-61
2023/03/20 01:49:20;;;;;;;1.98;1.10;;;22.90;51.00;;;;;;4985546;28;20031;-62
2023/03/20 01:51:50;;;;;;;2.03;1.00;;;22.90;51.00;;;;;;4984442;28;20034;-62
2023/03/20 01:54:29;;;;;;;2.25;1.35;;;22.90;51.00;;;;;;4984414;28;20029;-62
2023/03/20 01:57:09;;;;;;;1.58;0.90;;;22.90;51.00;;;;;;4989950;28;20034;-62
2023/03/20 01:59:40;;;;;;;1.83;1.00;;;22.90;51.00;;;;;;4984619;28;20062;-62
2023/03/20 02:02:07;;;;;;;1.75;0.90;;;22.90;51.00;;;;;;4985988;28;20554;-61
2023/03/20 02:04:40;;;;;;;1.60;0.95;;;22.90;51.10;;;;;;4985191;28;20042;-61
2023/03/20 02:07:07;;;;;;;1.35;0.90;;;22.90;51.10;;;;;;4986331;28;20141;-61
2023/03/20 02:09:32;;;;;;;1.42;0.90;;;22.80;51.10;;;;;;4985739;28;20452;-61
2023/03/20 02:11:59;;;;;;;1.52;1.00;;;22.80;51.10;;;;;;4984447;28;20055;-61
2023/03/20 02:14:25;;;;;;;1.67;1.00;;;22.80;51.10;;;;;;4985972;28;20505;-61
2023/03/20 02:16:51;;;;;;;1.77;1.05;;;22.80;51.10;;;;;;4983913;28;20027;-61
2023/03/20 02:19:34;;;;;;;1.95;1.02;;;22.90;51.10;;;;;;4982227;28;20061;-61
2023/03/20 02:22:21;;;;;;;1.75;0.95;;;22.80;51.10;;;;;;4986817;28;20468;-61
2023/03/20 02:25:14;;;;;;;2.00;1.10;;;22.80;51.10;;;;;;4983109;28;20379;-62
2023/03/20 02:27:58;;;;;;;1.48;0.90;;;22.80;51.10;;;;;;4981215;28;20042;-62
2023/03/20 02:30:50;;;;;;;1.60;0.90;;;22.80;51.10;;;;;;4982827;28;20019;-62
2023/03/20 02:33:49;;;;;;;1.83;1.00;;;22.80;51.10;;;;;;4977057;28;20042;-62
2023/03/20 02:36:53;;;;;;;1.08;0.90;;;22.80;51.10;;;;;;4982183;28;20379;-62
2023/03/20 02:39:45;;;;;;;1.70;0.93;;;22.80;51.40;;;;;;4985970;28;20034;-62
2023/03/20 02:42:26;;;;;;;1.30;0.93;;;22.80;51.10;;;;;;4981856;28;20371;-62
2023/03/20 02:45:08;;;;;;;1.77;1.00;;;22.80;51.10;;;;;;4982085;28;20479;-62
2023/03/20 02:47:53;;;;;;;1.70;0.90;;;22.80;51.10;;;;;;4980183;28;20030;-62
2023/03/20 02:50:35;;;;;;;1.17;0.88;;;22.70;51.00;;;;;;4983423;28;20027;-63
2023/03/20 02:53:21;;;;;;;1.17;0.80;;;22.70;51.10;;;;;;4985915;28;20026;-62
2023/03/20 02:56:10;;;;;;;1.83;1.10;;;22.70;51.10;;;;;;4983153;28;20390;-63
2023/03/20 02:58:40;;;;;;;1.58;0.95;;;22.70;51.10;;;;;;4986024;28;20037;-63
2023/03/20 03:01:16;;;;;;;1.33;0.90;;;22.70;51.10;;;;;;4985850;28;20035;-63
2023/03/20 03:04:14;;;;;;;1.27;0.90;;;22.70;51.10;;;;;;4981443;28;20508;-62
2023/03/20 03:06:43;;;;;;;1.38;0.90;;;22.70;51.10;;;;;;4980307;28;20054;-63
2023/03/20 03:09:23;;;;;;;2.17;0.93;;;22.70;51.10;;;;;;4998396;28;20553;-62
2023/03/20 03:11:51;;;;;;;;;;;22.70;51.10;;;;;;4983358;28;20124;-62
2023/03/20 03:14:41;;;;;;;1.17;0.77;;;22.70;51.10;;;;;;4983039;28;20299;-62
2023/03/20 03:17:09;;;;;;;1.17;0.90;;;22.70;51.10;;;;;;4982142;28;20046;-63
2023/03/20 03:19:38;;;;;;;1.67;0.90;;;22.70;51.10;;;;;;4981245;28;20034;-63
2023/03/20 03:22:04;;;;;;;1.02;0.80;;;22.70;51.10;;;;;;4981559;28;20018;-62
2023/03/20 03:24:42;;;;;;;1.50;0.90;;;22.70;51.10;;;;;;4981132;28;20077;-62
2023/03/20 03:27:35;;;;;;;1.08;0.90;;;22.60;51.10;;;;;;4982871;28;20042;-62
2023/03/20 03:30:11;;;;;;;1.38;0.80;;;22.60;51.10;;;;;;4979525;28;20125;-63
2023/03/20 03:33:16;;;;;;;1.73;0.82;;;22.70;51.10;;;;;;4980875;28;20556;-63
2023/03/20 03:35:43;;;;;;;1.73;0.98;;;22.60;51.10;;;;;;4974900;28;20045;-62
2023/03/20 03:38:37;;;;;;;1.63;0.90;;;22.60;51.10;;;;;;4980465;28;20114;-62
2023/03/20 03:41:20;;;;;;;1.55;0.90;;;22.60;51.10;;;;;;4980454;28;20384;-63
2023/03/20 03:44:14;;;;;;;1.00;0.80;;;22.60;51.10;;;;;;4985465;28;20037;-62
2023/03/20 03:46:52;;;;;;;1.33;0.70;;;22.60;51.10;;;;;;4980930;28;20058;-63
2023/03/20 03:49:26;;;;;;;1.40;0.80;;;22.60;51.10;;;;;;4983092;28;20029;-62
2023/03/20 03:52:00;;;;;;;1.30;0.90;;;22.60;51.10;;;;;;4981311;28;20502;-62
2023/03/20 03:54:48;;;;;;;1.38;0.88;;;22.60;51.10;;;;;;4983832;28;20037;-63
2023/03/20 03:57:17;;;;;;;0.93;0.70;;;22.60;51.10;;;;;;4980275;28;20049;-62
2023/03/20 03:59:48;;;;;;;1.58;0.95;;;22.60;51.10;;;;;;4983685;28;20035;-62
2023/03/20 04:02:18;;;;;;;0.98;0.77;;;22.60;51.10;;;;;;4981651;28;20038;-62
2023/03/20 04:04:46;;;;;;;1.15;0.80;;;22.60;51.10;;;;;;4983432;28;20042;-62
2023/03/20 04:07:15;;;;;;;1.07;0.70;;;22.50;51.10;;;;;;4982866;28;20482;-61
2023/03/20 04:09:41;;;;;;;1.17;0.80;;;22.50;51.10;;;;;;4983164;28;20022;-62
2023/03/20 04:12:30;;;;;;;1.77;0.90;;;22.50;51.10;;;;;;4981712;28;20485;-62
2023/03/20 04:14:56;;;;;;;1.75;1.00;;;22.50;51.10;;;;;;4984772;28;20037;-62
2023/03/20 04:17:22;;;;;;;1.38;0.88;;;22.60;51.10;;;;;;4983460;28;20494;-62
2023/03/20 04:19:47;;;;;;;1.33;0.73;;;22.50;51.00;;;;;;4983022;28;20031;-62
2023/03/20 04:22:13;;;;;;;1.25;0.80;;;22.60;51.10;;;;;;4985069;28;20031;-62
2023/03/20 04:24:38;;;;;;;1.25;0.77;;;22.50;51.10;;;;;;4980135;28;20045;-63
2023/03/20 04:27:04;;;;;;;1.83;0.80;;;22.50;51.10;;;;;;4981463;28;20501;-62
2023/03/20 04:29:29;;;;;;;1.30;0.80;;;22.50;51.10;;;;;;4980947;28;20022;-63
2023/03/20 04:31:55;;;;;;;1.10;0.80;;;22.50;51.00;;;;;;4980417;28;20081;-62
2023/03/20 04:34:21;;;;;;;1.00;0.80;;;22.50;51.10;;;;;;4982729;28;20505;-62
2023/03/20 04:36:47;;;;;;;1.30;0.80;;;22.50;51.10;;;;;;4982276;28;20080;-62
2023/03/20 04:39:13;;;;;;;1.17;0.70;;;22.50;51.10;;;;;;4981365;28;20039;-62
2023/03/20 04:41:39;;;;;;;1.00;0.80;;;22.50;51.10;;;;;;4982408;28;20026;-62
2023/03/20 04:44:05;;;;;;;1.27;0.80;;;22.50;51.10;;;;;;4979710;28;20466;-62
2023/03/20 04:46:31;;;;;;;1.58;0.73;;;22.50;51.10;;;;;;4978704;28;20041;-62
2023/03/20 04:48:56;;;;;;;1.25;0.70;;;22.50;51.10;;;;;;4980260;28;20451;-63
2023/03/20 04:51:22;;;;;;;0.90;0.70;;;22.50;51.10;;;;;;4978822;28;20062;-63
2023/03/20 04:53:47;;;;;;;0.93;0.73;;;22.50;51.10;;;;;;4983639;28;20037;-62
2023/03/20 04:56:13;;;;;;;1.55;0.80;;;22.50;51.10;;;;;;4982186;28;20035;-63
2023/03/20 04:58:39;;;;;;;1.17;0.70;;;22.50;51.10;;;;;;4984335;28;20101;-63
2023/03/20 05:01:05;;;;;;;1.45;0.88;;;22.50;51.10;;;;;;4985887;28;20498;-62
2023/03/20 05:03:30;;;;;;;1.05;0.70;;;22.50;51.10;;;;;;4987859;28;20106;-62
2023/03/20 05:05:56;;;;;;;1.15;0.85;;;22.50;51.10;;;;;;4984167;28;20387;-62
2023/03/20 05:08:22;;;;;;;0.90;0.80;;;22.50;51.10;;;;;;4984323;28;20465;-62
2023/03/20 05:10:47;;;;;;;1.63;0.80;;;22.50;51.10;;;;;;4989628;28;20517;-61
2023/03/20 05:13:13;;;;;;;0.95;0.70;;;22.50;51.10;;;;;;4985432;28;20114;-62
2023/03/20 05:15:39;;;;;;;1.40;0.80;;;22.40;51.10;;;;;;4985609;28;20426;-62
2023/03/20 05:18:04;;;;;;;0.88;0.70;;;22.50;51.10;;;;;;4982045;28;20038;-63
2023/03/20 05:20:30;;;;;;;1.20;0.70;;;22.40;51.10;;;;;;4985305;28;20022;-62
2023/03/20 05:22:55;;;;;;;1.00;0.73;;;22.40;51.10;;;;;;4984042;28;20105;-62
2023/03/20 05:25:22;;;;;;;1.30;0.85;;;22.40;51.10;;;;;;4987256;28;20039;-61
2023/03/20 05:27:47;;;;;;;1.20;0.80;;;22.40;51.10;;;;;;4984433;28;20438;-62
2023/03/20 05:30:14;;;;;;;1.65;0.80;;;22.40;51.10;;;;;;4984188;28;20022;-63
2023/03/20 05:32:40;;;;;;;1.05;0.77;;;22.40;51.10;;;;;;4986269;28;20059;-62
2023/03/20 05:35:07;;;;;;;1.50;0.88;;;22.40;51.20;;;;;;4987281;28;20085;-62
2023/03/20 05:37:33;;;;;;;1.67;0.80;;;22.40;51.10;;;;;;4987393;28;20111;-63
2023/03/20 05:39:59;;;;;;;1.45;0.77;;;22.40;51.10;;;;;;4985006;28;20181;-62
2023/03/20 05:42:24;;;;;;;0.88;0.70;;;22.40;51.10;;;;;;4983080;28;20026;-62
2023/03/20 05:44:50;;;;;;;1.15;0.70;;;22.40;51.20;;;;;;4984976;28;20109;-63
2023/03/20 05:47:16;;;;;;;1.00;0.80;;;22.40;51.70;;;;;;4987950;28;20034;-63
2023/03/20 05:49:41;;;;;;;1.05;0.80;;;22.40;51.20;;;;;;4982527;28;20120;-63
2023/03/20 05:52:07;;;;;;;0.82;0.80;;;22.40;51.20;;;;;;4983693;28;20117;-63
2023/03/20 05:54:32;;;;;;;1.20;0.80;;;22.40;51.20;;;;;;4986378;28;20231;-63
2023/03/20 05:56:58;;;;;;;1.20;0.80;;;22.40;51.20;;;;;;4983412;28;20045;-63
2023/03/20 05:59:24;;;;;;;1.38;0.90;;;22.40;51.20;;;;;;4980281;28;20037;-63
2023/03/20 06:01:50;;;;;;;2.17;0.90;;;22.40;51.20;;;;;;4984681;28;20057;-63
2023/03/20 06:04:16;;;;;;;2.20;0.90;;;22.40;51.20;;;;;;4985172;28;20033;-63
2023/03/20 06:06:41;;;;;;;1.02;0.77;;;22.40;51.20;;;;;;4985909;28;20022;-63
2023/03/20 06:09:07;;;;;;;1.60;0.90;;;22.30;51.10;;;;;;4982984;28;20103;-63
2023/03/20 06:11:33;;;;;;;1.38;0.80;;;22.40;51.20;;;;;;4982389;28;20019;-63
2023/03/20 06:13:58;;;;;;;1.77;0.80;;;22.30;51.20;;;;;;4982531;28;20553;-63
2023/03/20 06:16:25;;;;;;;1.88;0.98;;;22.30;51.20;;;;;;4987802;28;20101;-63
2023/03/20 06:18:51;;;;;;;1.65;0.80;;;22.40;51.30;;;;;;4983420;28;20069;-64
2023/03/20 06:21:16;;;;;;;3.00;0.90;;;22.30;51.20;;;;;;4986168;28;20066;-64
2023/03/20 06:23:42;;;;;;;1.92;0.80;;;22.30;51.20;;;;;;4984815;28;20383;-63
2023/03/20 06:26:08;;;;;;;1.50;0.85;;;22.30;51.40;;;;;;4986743;28;20048;-63
2023/03/20 06:28:33;;;;;;;1.73;0.85;;;22.30;51.30;;;;;;4983703;28;20037;-63
2023/03/20 06:30:59;;;;;;;1.67;0.90;;;22.30;51.30;;;;;;4979492;28;20133;-63
2023/03/20 06:33:25;;;;;;;1.73;0.90;;;22.40;51.40;;;;;;4982515;28;20049;-63
2023/03/20 06:35:50;;;;;;;1.70;0.90;;;22.40;51.40;;;;;;4984153;28;20102;-63
2023/03/20 06:38:16;;;;;;;1.80;0.93;;;22.30;51.40;;;;;;4983101;28;20479;-62
2023/03/20 06:40:42;;;;;;;1.35;0.85;;;22.30;51.40;;;;;;4984188;28;20090;-62
2023/03/20 06:43:10;;;;;;;1.35;0.80;;;22.30;51.40;;;;;;4983161;28;20092;-63
2023/03/20 06:45:35;;;;;;;1.10;0.80;;;22.30;51.30;;;;;;4999030;28;20478;-63
2023/03/20 06:48:04;;;;;;;1.55;0.80;;;22.40;51.40;;;;;;4985645;28;20027;-63
2023/03/20 06:50:30;;;;;;;2.13;0.90;;;22.30;51.30;;;;;;4984114;28;20114;-64
2023/03/20 06:52:56;;;;;;;2.00;0.85;;;22.30;51.30;;;;;;4984347;28;20289;-63
2023/03/20 06:55:21;;;;;;;1.55;0.82;;;22.30;51.40;;;;;;4985516;28;20029;-63
2023/03/20 06:57:47;;;;;;;1.52;0.98;;;22.30;51.30;;;;;;4984713;28;20549;-63
2023/03/20 07:00:13;;;;;;;2.90;0.98;;;22.30;51.30;;;;;;4979096;28;20110;-63
2023/03/20 07:02:39;;;;;;;1.88;1.00;;;22.40;51.40;;;;;;4984449;28;20038;-63
2023/03/20 07:05:05;;;;;;;1.95;0.95;;;22.30;51.40;;;;;;4982479;28;20070;-63
2023/03/20 07:07:31;;;;;;;2.42;0.93;;;22.30;51.30;;;;;;4982945;28;20089;-63
2023/03/20 07:09:57;;;;;;;2.67;1.05;;;22.40;51.40;;;;;;4981840;28;20026;-63
2023/03/20 07:12:27;;;;;;;3.03;1.15;;;22.30;51.40;;;;;;4981645;28;20081;-63
2023/03/20 07:14:53;;;;;;;2.45;1.00;;;22.30;51.30;;;;;;4982159;28;20450;-64
2023/03/20 07:17:18;;;;;;;2.65;1.10;;;22.30;51.40;;;;;;4982732;28;20050;-64
2023/03/20 07:19:44;;;;;;;2.72;1.00;;;22.30;51.40;;;;;;4982565;28;20030;-63
2023/03/20 07:22:21;;;;;;;2.50;1.00;;;22.30;51.40;;;;;;4981850;28;20034;-63
2023/03/20 07:24:47;;;;;;;1.95;1.00;;;22.30;51.40;;;;;;4984658;28;20054;-63
2023/03/20 07:27:12;;;;;;;2.42;1.17;;;22.30;51.30;;;;;;4983130;28;20621;-64
2023/03/20 07:29:38;;;;;;;2.80;0.90;;;22.30;51.40;;;;;;4984045;28;20061;-63
2023/03/20 07:32:03;;;;;;;2.67;1.10;;;22.30;51.40;;;;;;4984001;28;20434;-63
2023/03/20 07:34:29;;;;;;;2.50;0.98;;;22.30;51.40;;;;;;4981276;28;20037;-63
2023/03/20 07:36:55;;;;;;;3.00;1.35;;;22.40;51.40;;;;;;4983316;28;20019;-63
2023/03/20 07:39:21;;;;;;;2.75;1.10;;;22.30;51.40;;;;;;4984038;28;20037;-64
2023/03/20 07:41:47;;;;;;;2.95;1.10;;;22.40;51.40;;;;;;4983408;28;20026;-63
2023/03/20 07:44:13;;;;;;;4.38;1.58;;;22.40;51.40;;;;;;4984753;28;20422;-63
2023/03/20 07:46:39;;;;;;;2.40;1.23;;;22.30;51.30;;;;;;4982255;28;20038;-64
2023/03/20 07:49:05;;;;;;;2.53;1.40;;;22.30;51.30;;;;;;4983661;28;20018;-63
2023/03/20 07:51:32;;;;;;;2.58;1.10;;;22.40;51.40;;;;;;4980882;28;20053;-64
2023/03/20 07:53:58;;;;;;;3.05;1.20;;;22.30;51.30;;;;;;4985178;28;20445;-63
2023/03/20 07:56:23;;;;;;;3.05;1.10;;;22.40;51.30;;;;;;4985713;28;20035;-63
2023/03/20 07:58:49;;;;;;;1.85;1.00;;;22.40;51.30;;;;;;4980748;28;20034;-63
2023/03/20 08:01:15;;;;;;;2.15;1.00;;;22.40;51.30;;;;;;4982384;28;20033;-64
2023/03/20 08:03:40;;;;;;;2.50;1.20;;;22.40;51.30;;;;;;4982559;28;20026;-63
2023/03/20 08:06:08;;;;;;;2.60;1.10;;;22.30;51.30;;;;;;4982916;28;20050;-63
2023/03/20 08:08:34;;;;;;;3.35;1.20;;;22.40;51.30;;;;;;4982592;28;20451;-64
2023/03/20 08:11:00;;;;;;;2.40;1.05;;;22.40;51.30;;;;;;4983907;28;20019;-63
2023/03/20 08:13:26;;;;;;;4.88;1.20;;;22.40;51.30;;;;;;4985541;28;20038;-63
2023/03/20 08:15:51;;;;;;;3.97;1.20;;;22.40;51.30;;;;;;4980920;28;20356;-63
2023/03/20 08:18:18;;;;;;;2.45;1.10;;;22.30;51.30;;;;;;4980359;28;20033;-63
2023/03/20 08:20:45;;;;;;;2.22;0.98;;;22.40;51.30;;;;;;4983428;28;20114;-63
2023/03/20 08:23:10;;;;;;;2.63;1.10;;;22.40;51.30;;;;;;4981853;28;20058;-64
2023/03/20 08:25:37;;;;;;;2.83;1.23;;;22.40;51.30;;;;;;4983018;28;20066;-63
2023/03/20 08:28:02;;;;;;;2.50;1.20;;;22.40;51.40;;;;;;4982648;28;20069;-63
2023/03/20 08:30:29;;;;;;;1.95;1.08;;;22.40;51.30;;;;;;4982211;28;20494;-63
2023/03/20 08:32:57;;;;;;;2.80;1.05;;;22.40;51.40;;;;;;4985809;28;20069;-64
2023/03/20 08:35:22;;;;;;;2.22;1.20;;;22.40;51.40;;;;;;4983374;28;20109;-63
2023/03/20 08:37:48;;;;;;;2.65;1.30;;;22.40;51.40;;;;;;4984828;28;20114;-63
2023/03/20 08:40:14;;;;;;;2.40;1.17;;;22.40;51.40;;;;;;4985251;28;20045;-63
2023/03/20 08:42:39;;;;;;;2.63;1.30;;;22.40;51.40;;;;;;4983332;28;20031;-63
2023/03/20 08:45:06;;;;;;;1.95;1.10;;;22.40;51.40;;;;;;4987605;28;20061;-63
2023/03/20 08:47:32;;;;;;;2.50;1.10;;;22.40;51.40;;;;;;4986174;28;20534;-63
2023/03/20 08:49:57;;;;;;;2.50;1.13;;;22.40;51.50;;;;;;4990549;28;20039;-63
2023/03/20 08:52:23;;;;;;;2.22;1.02;;;22.40;51.50;;;;;;4986032;28;20034;-63
2023/03/20 08:54:49;;;;;;;2.22;1.13;;;22.50;51.50;;;;;;4986751;28;20019;-63
2023/03/20 08:57:14;;;;;;;2.00;1.10;;;22.50;51.50;;;;;;4986490;28;20030;-63
2023/03/20 08:59:40;;;;;;;2.45;1.30;;;22.50;51.50;;;;;;4986784;28;20542;-63
2023/03/20 09:02:06;;;;;;;2.78;1.20;;;22.50;51.50;;;;;;4987212;28;20117;-63
2023/03/20 09:04:32;;;;;;;1.75;1.10;;;22.50;51.50;;;;;;4984247;28;20030;-64
2023/03/20 09:07:00;;;;;;;2.72;1.20;;;22.50;51.50;;;;;;4985801;28;20033;-63
2023/03/20 09:09:28;;;;;;;2.42;1.10;;;22.50;51.50;;;;;;4985955;28;20709;-64
2023/03/20 09:11:55;;;;;;;2.75;1.20;;;22.50;51.50;;;;;;4985915;28;20416;-63
2023/03/20 09:14:22;;;;;;;2.35;1.00;;;22.50;51.50;;;;;;4989053;28;20027;-63
2023/03/20 09:16:47;;;;;;;2.85;1.30;;;22.50;51.50;;;;;;4987938;28;20084;-63
2023/03/20 09:19:13;;;;;;;2.47;1.27;;;22.50;51.50;;;;;;4987535;28;20038;-63
2023/03/20 09:21:39;;;;;;;2.10;1.20;;;22.50;51.50;;;;;;4985475;28;20437;-63
2023/03/20 09:24:05;;;;;;;2.35;1.10;;;22.50;51.50;;;;;;4991224;28;20027;-63
2023/03/20 09:26:31;;;;;;;1.98;1.13;;;22.50;51.50;;;;;;4984819;28;20033;-64
2023/03/20 09:28:56;;;;;;;2.45;1.10;;;22.50;51.50;;;;;;4990162;28;20019;-63
2023/03/20 09:31:22;;;;;;;2.30;1.10;;;22.50;51.50;;;;;;4987427;28;20029;-64
2023/03/20 09:33:48;;;;;;;2.53;1.20;;;22.50;51.50;;;;;;4984374;28;20557;-64
2023/03/20 09:36:14;;;;;;;1.67;1.08;;;22.60;51.60;;;;;;4982982;28;20076;-63
2023/03/20 09:38:41;;;;;;;1.92;1.00;;;22.60;51.60;;;;;;4985041;28;20057;-64
2023/03/20 09:41:20;;;;;;;2.55;1.20;;;22.60;51.60;;;;;;4985405;28;20481;-63
2023/03/20 09:44:04;;;;;;;2.83;0.95;;;22.60;51.70;;;;;;4982876;28;20050;-63
2023/03/20 09:46:37;;;;;;;2.70;1.23;;;22.60;51.70;;;;;;4987336;28;20035;-63
2023/03/20 09:49:45;;;;;;;2.42;1.10;;;22.60;51.60;;;;;;4986678;28;20101;-64
2023/03/20 09:52:28;;;;;;;2.00;1.00;;;22.60;51.70;;;;;;4983930;28;20097;-63
2023/03/20 09:54:59;;;;;;;2.05;1.08;;;22.60;51.60;;;;;;4983430;28;20517;-63
2023/03/20 09:57:33;;;;;;;2.65;1.23;;;22.70;51.70;;;;;;4983056;28;20109;-63
2023/03/20 10:00:06;;;;;;;1.58;0.95;;;22.70;51.60;;;;;;4982730;28;20061;-63
2023/03/20 10:02:59;;;;;;;1.58;1.00;;;22.70;51.60;;;;;;4984519;28;20057;-63
2023/03/20 10:05:38;;;;;;;2.05;1.20;;;22.70;51.60;;;;;;4985231;28;20546;-63
2023/03/20 10:08:10;;;;;;;2.55;1.10;;;22.70;51.60;;;;;;4984607;28;20447;-63
2023/03/20 10:10:50;;;;;;;3.03;1.30;;;22.70;51.50;;;;;;4983783;28;20074;-63
2023/03/20 10:13:43;;;;;;;1.83;1.02;;;22.70;51.60;;;;;;4983385;28;20091;-64
2023/03/20 10:16:35;;;;;;;2.45;1.23;;;22.70;51.60;;;;;;4984095;28;20351;-63
2023/03/20 10:19:18;;;;;;;2.22;1.10;;;22.70;51.50;;;;;;4984305;28;20521;-63
2023/03/20 10:21:47;;;;;;;3.00;1.00;;;22.80;51.60;;;;;;4983773;28;20030;-63
2023/03/20 10:24:41;;;;;;;1.88;1.08;;;22.70;51.50;;;;;;4983769;28;20205;-63
2023/03/20 10:27:17;;;;;;;1.73;0.90;;;22.70;51.50;;;;;;4979885;28;20045;-64
2023/03/20 10:30:07;;;;;;;2.13;1.20;;;22.70;51.50;;;;;;4982472;28;20049;-63
2023/03/20 10:32:46;;;;;;;2.33;1.20;;;22.70;51.50;;;;;;4984049;28;20131;-63
2023/03/20 10:35:27;;;;;;;;;;;22.80;51.50;;;;;;4984080;28;20037;-63
2023/03/20 10:37:56;;;;;;;2.00;1.00;;;22.80;51.60;;;;;;4983992;28;20294;-63
2023/03/20 10:40:31;;;;;;;1.33;0.98;;;22.80;51.50;;;;;;4985553;28;20471;-63
2023/03/20 10:43:13;;;;;;;2.33;1.10;;;22.80;51.50;;;;;;4984535;28;20440;-63
2023/03/20 10:45:49;;;;;;;1.73;1.08;;;22.80;51.40;;;;;;4996098;28;20219;-63
2023/03/20 10:48:37;;;;;;;1.73;0.80;;;22.80;51.40;;;;;;4999190;28;20031;-63
2023/03/20 10:51:05;;;;;;;1.83;1.00;;;22.80;51.50;;;;;;4983621;28;20538;-63
2023/03/20 10:53:51;;;;;;;1.80;0.90;;;22.80;51.40;;;;;;4983285;28;20031;-64
2023/03/20 10:56:35;;;;;;;1.50;0.98;;;22.80;51.40;;;;;;4982853;28;20364;-63
2023/03/20 10:59:13;;;;;;;1.70;0.90;;;22.80;51.40;;;;;;4983128;28;20027;-64
2023/03/20 11:01:39;;;;;;;2.03;1.10;;;22.80;51.40;;;;;;4981989;28;20034;-63
2023/03/20 11:04:06;;;;;;;2.00;1.00;;;22.80;51.30;;;;;;4983630;28;20030;-64
2023/03/20 11:06:36;;;;;;;1.40;1.00;;;22.80;51.30;;;;;;4985067;28;20089;-63
2023/03/20 11:09:23;;;;;;;2.38;1.08;;;22.80;51.30;;;;;;4983576;28;20030;-63
2023/03/20 11:11:56;;;;;;;2.20;1.05;;;22.80;51.30;;;;;;4983541;28;20035;-63
2023/03/20 11:14:26;;;;;;;2.05;1.00;;;22.80;51.30;;;;;;4983104;28;20038;-63
2023/03/20 11:16:54;;;;;;;2.22;1.00;;;22.80;51.30;;;;;;4983524;28;20606;-64
2023/03/20 11:19:22;;;;;;;1.38;0.90;;;22.80;51.40;;;;;;4998233;28;20130;-64
2023/03/20 11:22:00;;;;;;;1.95;0.98;;;22.80;51.30;;;;;;4986262;28;20049;-63
2023/03/20 11:24:25;;;;;;;1.85;0.90;;;22.90;51.40;;;;;;4979425;28;20512;-64
2023/03/20 11:26:51;;;;;;;1.80;0.98;;;22.80;51.30;;;;;;4981549;28;20034;-63
2023/03/20 11:29:30;;;;;;;1.58;0.90;;;22.80;51.30;;;;;;4982947;28;20084;-63
2023/03/20 11:32:07;;;;;;;2.20;1.05;;;22.80;51.30;;;;;;4982661;28;20113;-64
2023/03/20 11:34:37;;;;;;;1.73;1.08;;;22.80;51.30;;;;;;4983116;28;20374;-63
2023/03/20 11:37:18;;;;;;;1.98;1.00;;;22.90;51.40;;;;;;4984181;28;20077;-63
2023/03/20 11:40:03;;;;;;;2.30;1.20;;;22.80;51.30;;;;;;4977859;28;20039;-63
2023/03/20 11:42:30;;;;;;;1.80;1.00;;;22.90;51.40;;;;;;4981297;28;20034;-64
2023/03/20 11:44:57;;;;;;;1.73;1.00;;;22.80;51.30;;;;;;4983641;28;20026;-63
2023/03/20 11:47:26;;;;;;;2.13;1.13;;;22.80;51.30;;;;;;4981200;28;20014;-64
2023/03/20 11:49:57;;;;;;;1.92;1.20;;;22.80;51.30;;;;;;4980471;28;20282;-63
2023/03/20 11:52:31;;;;;;;1.67;1.00;;;22.80;51.30;;;;;;4983219;28;20057;-63
2023/03/20 11:54:59;;;;;;;2.95;1.00;;;22.80;51.30;;;;;;4982495;28;20027;-62
2023/03/20 11:57:37;;;;;;;2.00;1.00;;;22.80;51.30;;;;;;4983191;28;20494;-63
2023/03/20 12:00:16;;;;;;;1.85;0.88;;;22.80;51.30;;;;;;4979840;28;20456;-63
2023/03/20 12:02:43;;;;;;;1.88;1.00;;;22.80;51.30;;;;;;4984016;28;20081;-63
2023/03/20 12:05:44;;;;;;;2.10;1.00;;;22.90;51.40;;;;;;4996764;28;20036;-63
2023/03/20 12:08:17;;;;;;;1.83;1.00;;;22.80;51.30;;;;;;4982307;28;20034;-63
2023/03/20 12:10:50;;;;;;;1.98;1.20;;;22.80;51.30;;;;;;4985610;28;20061;-63
2023/03/20 12:13:23;;;;;;;1.85;1.05;;;22.80;51.30;;;;;;4984410;28;20102;-63
2023/03/20 12:15:54;;;;;;;1.63;0.90;;;22.90;51.30;;;;;;4983010;28;20118;-63
2023/03/20 12:18:39;;;;;;;1.80;0.93;;;22.90;51.30;;;;;;4980337;28;20129;-62
2023/03/20 12:21:15;;;;;;;1.20;0.73;;;22.90;51.30;;;;;;4987912;28;20030;-63
2023/03/20 12:23:50;;;;;;;2.00;1.00;;;22.90;51.30;;;;;;4983702;28;20026;-63
2023/03/20 12:26:33;;;;;;;1.05;0.75;;;22.90;51.30;;;;;;4987220;28;20546;-63
2023/03/20 12:29:11;;;;;;;1.70;0.90;;;22.90;51.30;;;;;;4984222;28;20054;-63
2023/03/20 12:31:52;;;;;;;1.70;0.90;;;22.90;51.30;;;;;;4982753;28;20030;-63
2023/03/20 12:34:20;;;;;;;2.13;1.00;;;22.90;51.40;;;;;;4981723;28;20033;-64
2023/03/20 12:36:51;;;;;;;1.08;0.75;;;22.90;51.30;;;;;;4979543;28;20562;-64
2023/03/20 12:39:27;;;;;;;1.77;0.90;;;22.90;51.80;;;;;;4984026;28;20026;-63
2023/03/20 12:42:29;;;;;;;1.35;0.90;;;22.90;51.30;;;;;;4981843;28;20027;-63
2023/03/20 12:45:08;;;;;;;2.25;0.90;;;22.90;51.30;;;;;;4981377;28;20027;-63
2023/03/20 12:48:11;;;;;;;1.40;0.83;;;22.90;51.30;;;;;;4985170;28;20086;-63
2023/03/20 12:50:40;;;;;;;1.27;0.80;;;22.90;51.30;;;;;;4982900;28;20045;-63
2023/03/20 12:53:06;;;;;;;1.15;0.80;;;22.90;51.20;;;;;;4985859;28;20058;-63
2023/03/20 12:55:44;;;;;;;1.63;0.90;;;22.90;51.30;;;;;;4984853;28;20031;-63
2023/03/20 12:58:21;;;;;;;1.73;0.80;;;22.90;51.30;;;;;;4981553;28;20545;-62
2023/03/20 13:01:09;;;;;;;2.47;0.90;;;22.90;51.30;;;;;;4981611;28;20030;-63
2023/03/20 13:03:55;;;;;;;1.58;0.90;;;22.90;51.30;;;;;;4982634;28;20057;-62
2023/03/20 13:06:39;;;;;;;1.55;1.00;;;22.90;51.30;;;;;;4981463;28;20084;-62
2023/03/20 13:09:29;;;;;;;1.52;0.90;;;22.90;51.30;;;;;;4982618;28;20034;-63
2023/03/20 13:12:24;;;;;;;1.63;0.90;;;22.90;51.30;;;;;;4983556;28;20018;-63